sensor_id;sensor_type;location;lat;lon;timestamp;pressure;altitude;pressure_sealevel;temperature;humidity
66742;BME280;53654;54.152;19.432;2022-08-03T00:02:19;101780.47;;;16.39;67.43
66742;BME280;53654;54.152;19.432;2022-08-03T00:04:47;101781.70;;;16.40;67.32
66742;BME280;53654;54.152;19.432;2022-08-03T00:07:16;101779.59;;;16.39;67.24
66742;BME280;53654;54.152;19.432;2022-08-03T00:09:44;101781.35;;;16.39;67.28
66742;BME280;53654;54.152;19.432;2022-08-03T00:12:12;101784.35;;;16.39;67.22
66742;BME280;53654;54.152;19.432;2022-08-03T00:14:41;101787.71;;;16.38;67.01
66742;BME280;53654;54.152;19.432;2022-08-03T00:17:09;101787.19;;;16.38;66.96
66742;BME280;53654;54.152;19.432;2022-08-03T00:19:37;101784.73;;;16.38;66.84
66742;BME280;53654;54.152;19.432;2022-08-03T00:22:05;101786.30;;;16.39;66.59
66742;BME280;53654;54.152;19.432;2022-08-03T00:24:33;101787.34;;;16.39;66.51
66742;BME280;53654;54.152;19.432;2022-08-03T00:27:03;101785.23;;;16.39;66.35
66742;BME280;53654;54.152;19.432;2022-08-03T00:29:31;101788.92;;;16.39;66.17
66742;BME280;53654;54.152;19.432;2022-08-03T00:32:19;101781.70;;;16.39;66.02
66742;BME280;53654;54.152;19.432;2022-08-03T00:34:50;101779.41;;;16.40;65.87
66742;BME280;53654;54.152;19.432;2022-08-03T00:37:25;101779.05;;;16.41;65.70
66742;BME280;53654;54.152;19.432;2022-08-03T00:40:12;101780.31;;;16.38;65.67
66742;BME280;53654;54.152;19.432;2022-08-03T00:43:04;101776.27;;;16.37;65.50
66742;BME280;53654;54.152;19.432;2022-08-03T00:45:35;101777.17;;;16.36;65.24
66742;BME280;53654;54.152;19.432;2022-08-03T00:48:07;101775.05;;;16.37;65.01
66742;BME280;53654;54.152;19.432;2022-08-03T00:50:55;101775.41;;;16.36;64.81
66742;BME280;53654;54.152;19.432;2022-08-03T00:53:24;101775.58;;;16.37;64.66
66742;BME280;53654;54.152;19.432;2022-08-03T00:55:52;101776.27;;;16.38;64.62
66742;BME280;53654;54.152;19.432;2022-08-03T00:58:20;101773.28;;;16.37;64.45
66742;BME280;53654;54.152;19.432;2022-08-03T01:00:49;101774.46;;;16.40;63.98
66742;BME280;53654;54.152;19.432;2022-08-03T01:03:17;101776.36;;;16.43;63.74
66742;BME280;53654;54.152;19.432;2022-08-03T01:11:27;101777.64;;;16.51;63.12
66742;BME280;53654;54.152;19.432;2022-08-03T01:14:15;101775.14;;;16.53;63.14
66742;BME280;53654;54.152;19.432;2022-08-03T01:19:53;101767.67;;;16.57;62.97
66742;BME280;53654;54.152;19.432;2022-08-03T01:31:43;101758.98;;;16.51;63.15
66742;BME280;53654;54.152;19.432;2022-08-03T01:34:42;101758.16;;;16.47;63.44
66742;BME280;53654;54.152;19.432;2022-08-03T01:37:15;101756.09;;;16.44;63.65
66742;BME280;53654;54.152;19.432;2022-08-03T01:39:48;101753.14;;;16.41;63.84
66742;BME280;53654;54.152;19.432;2022-08-03T01:42:18;101749.16;;;16.38;64.08
66742;BME280;53654;54.152;19.432;2022-08-03T01:44:48;101750.08;;;16.35;64.30
66742;BME280;53654;54.152;19.432;2022-08-03T01:47:19;101749.39;;;16.34;64.68
66742;BME280;53654;54.152;19.432;2022-08-03T01:49:49;101751.35;;;16.32;65.03
66742;BME280;53654;54.152;19.432;2022-08-03T01:52:20;101750.67;;;16.31;65.33
66742;BME280;53654;54.152;19.432;2022-08-03T01:54:50;101747.71;;;16.29;65.59
66742;BME280;53654;54.152;19.432;2022-08-03T01:57:20;101742.27;;;16.29;65.88
66742;BME280;53654;54.152;19.432;2022-08-03T01:59:49;101741.05;;;16.27;66.24
66742;BME280;53654;54.152;19.432;2022-08-03T02:02:19;101737.55;;;16.26;66.51
66742;BME280;53654;54.152;19.432;2022-08-03T02:05:05;101737.03;;;16.25;66.86
66742;BME280;53654;54.152;19.432;2022-08-03T02:07:39;101737.41;;;16.23;67.16
66742;BME280;53654;54.152;19.432;2022-08-03T02:10:09;101734.08;;;16.23;67.23
66742;BME280;53654;54.152;19.432;2022-08-03T02:12:39;101733.02;;;16.23;67.67
66742;BME280;53654;54.152;19.432;2022-08-03T02:15:14;101731.80;;;16.23;67.96
66742;BME280;53654;54.152;19.432;2022-08-03T02:17:45;101733.36;;;16.24;68.13
66742;BME280;53654;54.152;19.432;2022-08-03T02:20:14;101730.00;;;16.25;68.30
66742;BME280;53654;54.152;19.432;2022-08-03T02:22:43;101730.34;;;16.26;68.69
66742;BME280;53654;54.152;19.432;2022-08-03T02:25:14;101722.40;;;16.27;69.01
66742;BME280;53654;54.152;19.432;2022-08-03T02:27:50;101725.54;;;16.28;69.27
66742;BME280;53654;54.152;19.432;2022-08-03T02:30:20;101724.62;;;16.31;69.55
66742;BME280;53654;54.152;19.432;2022-08-03T02:32:54;101723.18;;;16.33;69.76
66742;BME280;53654;54.152;19.432;2022-08-03T02:35:25;101720.85;;;16.35;70.07
66742;BME280;53654;54.152;19.432;2022-08-03T02:38:01;101720.44;;;16.38;70.40
66742;BME280;53654;54.152;19.432;2022-08-03T02:40:31;101719.34;;;16.41;70.60
66742;BME280;53654;54.152;19.432;2022-08-03T02:43:04;101717.54;;;16.43;70.76
66742;BME280;53654;54.152;19.432;2022-08-03T02:45:35;101716.27;;;16.46;70.98
66742;BME280;53654;54.152;19.432;2022-08-03T02:48:16;101721.50;;;16.49;71.12
66742;BME280;53654;54.152;19.432;2022-08-03T02:50:46;101714.98;;;16.49;71.31
66742;BME280;53654;54.152;19.432;2022-08-03T02:53:16;101723.17;;;16.53;71.40
66742;BME280;53654;54.152;19.432;2022-08-03T02:55:47;101727.56;;;16.54;71.50
66742;BME280;53654;54.152;19.432;2022-08-03T02:58:19;101730.16;;;16.57;71.68
66742;BME280;53654;54.152;19.432;2022-08-03T03:00:49;101731.20;;;16.57;71.75
66742;BME280;53654;54.152;19.432;2022-08-03T03:03:21;101732.61;;;16.58;71.85
66742;BME280;53654;54.152;19.432;2022-08-03T03:05:52;101731.73;;;16.58;72.03
66742;BME280;53654;54.152;19.432;2022-08-03T03:08:24;101736.14;;;16.58;72.04
66742;BME280;53654;54.152;19.432;2022-08-03T03:10:57;101737.52;;;16.59;72.16
66742;BME280;53654;54.152;19.432;2022-08-03T03:13:28;101739.62;;;16.60;72.21
66742;BME280;53654;54.152;19.432;2022-08-03T03:15:59;101740.68;;;16.59;72.25
66742;BME280;53654;54.152;19.432;2022-08-03T03:18:32;101744.02;;;16.60;72.41
66742;BME280;53654;54.152;19.432;2022-08-03T03:21:02;101745.05;;;16.61;72.48
66742;BME280;53654;54.152;19.432;2022-08-03T03:23:31;101748.20;;;16.63;72.28
66742;BME280;53654;54.152;19.432;2022-08-03T03:26:04;101746.08;;;16.64;72.55
66742;BME280;53654;54.152;19.432;2022-08-03T03:28:33;101745.38;;;16.63;72.61
66742;BME280;53654;54.152;19.432;2022-08-03T03:31:05;101750.66;;;16.65;72.62
66742;BME280;53654;54.152;19.432;2022-08-03T03:33:33;101750.65;;;16.65;72.71
66742;BME280;53654;54.152;19.432;2022-08-03T03:36:03;101745.88;;;16.66;72.83
66742;BME280;53654;54.152;19.432;2022-08-03T03:38:32;101748.16;;;16.66;72.94
66742;BME280;53654;54.152;19.432;2022-08-03T03:41:00;101752.93;;;16.66;72.98
66742;BME280;53654;54.152;19.432;2022-08-03T03:43:28;101749.56;;;16.67;73.10
66742;BME280;53654;54.152;19.432;2022-08-03T03:45:57;101752.19;;;16.68;73.16
66742;BME280;53654;54.152;19.432;2022-08-03T03:48:26;101749.69;;;16.70;73.21
66742;BME280;53654;54.152;19.432;2022-08-03T03:50:55;101750.90;;;16.71;73.36
66742;BME280;53654;54.152;19.432;2022-08-03T03:53:24;101751.95;;;16.72;73.43
66742;BME280;53654;54.152;19.432;2022-08-03T03:55:52;101750.67;;;16.73;73.41
66742;BME280;53654;54.152;19.432;2022-08-03T03:58:31;101754.53;;;16.75;73.49
66742;BME280;53654;54.152;19.432;2022-08-03T04:00:59;101753.60;;;16.78;73.36
66742;BME280;53654;54.152;19.432;2022-08-03T04:03:28;101753.91;;;16.80;73.50
66742;BME280;53654;54.152;19.432;2022-08-03T04:05:56;101755.98;;;16.83;73.51
66742;BME280;53654;54.152;19.432;2022-08-03T04:08:44;101754.17;;;16.85;73.49
66742;BME280;53654;54.152;19.432;2022-08-03T04:11:37;101757.25;;;16.89;73.43
66742;BME280;53654;54.152;19.432;2022-08-03T04:14:12;101756.98;;;16.94;73.28
66742;BME280;53654;54.152;19.432;2022-08-03T04:16:45;101753.91;;;16.99;73.23
66742;BME280;53654;54.152;19.432;2022-08-03T04:19:24;101756.13;;;17.03;73.30
66742;BME280;53654;54.152;19.432;2022-08-03T04:21:58;101759.94;;;17.06;73.19
66742;BME280;53654;54.152;19.432;2022-08-03T04:24:38;101764.61;;;17.11;73.13
66742;BME280;53654;54.152;19.432;2022-08-03T04:27:10;101770.47;;;17.18;73.13
66742;BME280;53654;54.152;19.432;2022-08-03T04:29:44;101767.13;;;17.35;73.06
66742;BME280;53654;54.152;19.432;2022-08-03T04:32:16;101772.41;;;17.60;72.74
66742;BME280;53654;54.152;19.432;2022-08-03T04:34:45;101773.91;;;17.74;72.35
66742;BME280;53654;54.152;19.432;2022-08-03T04:37:37;101773.67;;;17.85;71.94
66742;BME280;53654;54.152;19.432;2022-08-03T04:40:09;101772.95;;;17.94;71.65
66742;BME280;53654;54.152;19.432;2022-08-03T04:42:39;101772.95;;;18.01;71.34
66742;BME280;53654;54.152;19.432;2022-08-03T04:45:11;101771.00;;;18.09;71.02
66742;BME280;53654;54.152;19.432;2022-08-03T04:47:40;101775.91;;;18.40;70.62
66742;BME280;53654;54.152;19.432;2022-08-03T04:50:09;101775.55;;;18.89;69.67
66742;BME280;53654;54.152;19.432;2022-08-03T04:52:41;101774.80;;;19.66;68.60
66742;BME280;53654;54.152;19.432;2022-08-03T04:55:10;101772.33;;;20.40;66.85
66742;BME280;53654;54.152;19.432;2022-08-03T04:57:38;101771.83;;;20.81;65.45
66742;BME280;53654;54.152;19.432;2022-08-03T05:00:07;101774.87;;;20.96;64.03
66742;BME280;53654;54.152;19.432;2022-08-03T05:02:35;101778.22;;;21.02;63.16
66742;BME280;53654;54.152;19.432;2022-08-03T05:05:04;101779.27;;;20.97;62.97
66742;BME280;53654;54.152;19.432;2022-08-03T05:07:32;101781.90;;;20.93;62.54
66742;BME280;53654;54.152;19.432;2022-08-03T05:10:05;101786.64;;;20.89;62.17
66742;BME280;53654;54.152;19.432;2022-08-03T05:12:44;101789.63;;;21.05;61.79
66742;BME280;53654;54.152;19.432;2022-08-03T05:15:14;101787.08;;;21.46;60.98
66742;BME280;53654;54.152;19.432;2022-08-03T05:17:43;101786.87;;;21.98;59.96
66742;BME280;53654;54.152;19.432;2022-08-03T05:20:11;101785.09;;;22.51;58.67
66742;BME280;53654;54.152;19.432;2022-08-03T05:22:43;101784.82;;;23.03;57.46
66742;BME280;53654;54.152;19.432;2022-08-03T05:25:11;101779.99;;;23.55;56.53
66742;BME280;53654;54.152;19.432;2022-08-03T05:27:46;101782.27;;;24.01;55.28
66742;BME280;53654;54.152;19.432;2022-08-03T05:30:14;101781.59;;;24.34;54.59
66742;BME280;53654;54.152;19.432;2022-08-03T05:33:02;101780.42;;;24.78;53.25
66742;BME280;53654;54.152;19.432;2022-08-03T05:35:31;101779.91;;;25.42;52.13
66742;BME280;53654;54.152;19.432;2022-08-03T05:38:21;101781.98;;;25.56;50.35
66742;BME280;53654;54.152;19.432;2022-08-03T05:40:56;101785.67;;;25.21;50.48
66742;BME280;53654;54.152;19.432;2022-08-03T05:43:45;101787.92;;;24.71;50.54
66742;BME280;53654;54.152;19.432;2022-08-03T05:46:13;101789.13;;;24.32;51.35
66742;BME280;53654;54.152;19.432;2022-08-03T05:48:42;101791.45;;;23.99;51.78
66742;BME280;53654;54.152;19.432;2022-08-03T05:51:10;101794.02;;;23.67;52.20
66742;BME280;53654;54.152;19.432;2022-08-03T05:53:40;101793.41;;;23.45;52.78
66742;BME280;53654;54.152;19.432;2022-08-03T05:56:09;101795.33;;;23.46;53.05
66742;BME280;53654;54.152;19.432;2022-08-03T05:58:43;101798.42;;;23.41;53.11
66742;BME280;53654;54.152;19.432;2022-08-03T06:01:12;101800.08;;;23.24;53.40
66742;BME280;53654;54.152;19.432;2022-08-03T06:03:40;101799.91;;;23.08;53.84
66742;BME280;53654;54.152;19.432;2022-08-03T06:06:09;101798.55;;;22.91;54.11
66742;BME280;53654;54.152;19.432;2022-08-03T06:08:39;101799.84;;;22.72;54.61
66742;BME280;53654;54.152;19.432;2022-08-03T06:11:08;101800.88;;;22.56;54.72
66742;BME280;53654;54.152;19.432;2022-08-03T06:13:36;101805.52;;;22.39;55.48
66742;BME280;53654;54.152;19.432;2022-08-03T06:16:04;101807.43;;;22.26;56.00
66742;BME280;53654;54.152;19.432;2022-08-03T06:18:33;101807.80;;;22.17;56.26
66742;BME280;53654;54.152;19.432;2022-08-03T06:21:02;101807.60;;;22.09;56.91
66742;BME280;53654;54.152;19.432;2022-08-03T06:23:43;101805.20;;;22.02;57.23
66742;BME280;53654;54.152;19.432;2022-08-03T06:26:23;101807.48;;;21.98;57.46
66742;BME280;53654;54.152;19.432;2022-08-03T06:28:52;101803.41;;;21.93;57.57
66742;BME280;53654;54.152;19.432;2022-08-03T06:31:22;101805.45;;;21.86;57.60
66742;BME280;53654;54.152;19.432;2022-08-03T06:34:01;101808.10;;;21.77;58.03
66742;BME280;53654;54.152;19.432;2022-08-03T06:36:50;101810.48;;;21.70;58.52
66742;BME280;53654;54.152;19.432;2022-08-03T06:39:20;101810.19;;;21.69;58.93
66742;BME280;53654;54.152;19.432;2022-08-03T06:41:51;101803.39;;;21.66;58.83
66742;BME280;53654;54.152;19.432;2022-08-03T06:44:20;101800.45;;;21.69;59.17
66742;BME280;53654;54.152;19.432;2022-08-03T06:46:48;101806.71;;;21.76;59.33
66742;BME280;53654;54.152;19.432;2022-08-03T06:49:16;101801.04;;;21.85;59.19
66742;BME280;53654;54.152;19.432;2022-08-03T06:51:45;101802.17;;;21.93;59.07
66742;BME280;53654;54.152;19.432;2022-08-03T06:54:33;101805.30;;;22.04;59.19
66742;BME280;53654;54.152;19.432;2022-08-03T06:57:02;101804.35;;;22.06;59.03
66742;BME280;53654;54.152;19.432;2022-08-03T06:59:30;101803.86;;;22.09;58.97
66742;BME280;53654;54.152;19.432;2022-08-03T07:02:19;101810.65;;;22.12;59.14
66742;BME280;53654;54.152;19.432;2022-08-03T07:04:47;101816.52;;;22.17;59.26
66742;BME280;53654;54.152;19.432;2022-08-03T07:07:15;101813.66;;;22.22;59.07
66742;BME280;53654;54.152;19.432;2022-08-03T07:09:44;101808.75;;;22.29;59.18
66742;BME280;53654;54.152;19.432;2022-08-03T07:12:26;101810.45;;;22.40;59.25
66742;BME280;53654;54.152;19.432;2022-08-03T07:14:55;101811.58;;;22.51;58.94
66742;BME280;53654;54.152;19.432;2022-08-03T07:17:29;101813.17;;;22.64;58.83
66742;BME280;53654;54.152;19.432;2022-08-03T07:19:58;101816.59;;;22.80;58.54
66742;BME280;53654;54.152;19.432;2022-08-03T07:22:27;101815.90;;;22.92;57.90
66742;BME280;53654;54.152;19.432;2022-08-03T07:24:55;101815.91;;;23.04;57.67
66742;BME280;53654;54.152;19.432;2022-08-03T07:27:24;101817.82;;;23.17;57.54
66742;BME280;53654;54.152;19.432;2022-08-03T07:29:54;101818.70;;;23.30;57.43
66742;BME280;53654;54.152;19.432;2022-08-03T07:32:23;101817.73;;;23.43;57.15
66742;BME280;53654;54.152;19.432;2022-08-03T07:34:51;101813.05;;;23.52;56.74
66742;BME280;53654;54.152;19.432;2022-08-03T07:37:27;101814.88;;;23.64;56.64
66742;BME280;53654;54.152;19.432;2022-08-03T07:39:56;101808.48;;;23.78;56.62
66742;BME280;53654;54.152;19.432;2022-08-03T07:42:26;101810.63;;;23.93;56.04
66742;BME280;53654;54.152;19.432;2022-08-03T07:44:54;101814.19;;;24.04;55.69
66742;BME280;53654;54.152;19.432;2022-08-03T07:47:26;101809.94;;;24.11;55.39
66742;BME280;53654;54.152;19.432;2022-08-03T07:50:04;101805.53;;;24.18;55.04
66742;BME280;53654;54.152;19.432;2022-08-03T07:52:35;101802.81;;;24.22;54.94
66742;BME280;53654;54.152;19.432;2022-08-03T07:55:18;101800.88;;;24.25;55.07
66742;BME280;53654;54.152;19.432;2022-08-03T07:57:59;101799.80;;;24.33;55.17
66742;BME280;53654;54.152;19.432;2022-08-03T08:00:27;101800.52;;;24.44;55.12
66742;BME280;53654;54.152;19.432;2022-08-03T08:02:55;101801.11;;;24.53;55.12
66742;BME280;53654;54.152;19.432;2022-08-03T08:05:24;101801.38;;;24.65;55.08
66742;BME280;53654;54.152;19.432;2022-08-03T08:07:53;101801.31;;;24.74;54.00
66742;BME280;53654;54.152;19.432;2022-08-03T08:10:21;101801.59;;;24.79;53.41
66742;BME280;53654;54.152;19.432;2022-08-03T08:12:49;101799.02;;;24.84;53.02
66742;BME280;53654;54.152;19.432;2022-08-03T08:15:17;101800.04;;;24.88;53.03
66742;BME280;53654;54.152;19.432;2022-08-03T08:17:51;101807.30;;;24.93;53.41
66742;BME280;53654;54.152;19.432;2022-08-03T08:20:25;101806.95;;;25.00;53.28
66742;BME280;53654;54.152;19.432;2022-08-03T08:23:00;101807.28;;;25.07;52.54
66742;BME280;53654;54.152;19.432;2022-08-03T08:25:30;101804.83;;;25.13;51.88
66742;BME280;53654;54.152;19.432;2022-08-03T08:27:59;101807.23;;;25.18;51.03
66742;BME280;53654;54.152;19.432;2022-08-03T08:30:51;101807.94;;;25.22;50.78
66742;BME280;53654;54.152;19.432;2022-08-03T08:33:19;101807.84;;;25.30;50.48
66742;BME280;53654;54.152;19.432;2022-08-03T08:35:51;101808.41;;;25.40;50.64
66742;BME280;53654;54.152;19.432;2022-08-03T08:38:21;101810.04;;;25.46;50.06
66742;BME280;53654;54.152;19.432;2022-08-03T08:40:50;101809.95;;;25.51;49.77
66742;BME280;53654;54.152;19.432;2022-08-03T08:43:18;101804.39;;;25.55;49.58
66742;BME280;53654;54.152;19.432;2022-08-03T08:45:51;101805.70;;;25.57;49.80
66742;BME280;53654;54.152;19.432;2022-08-03T08:48:23;101801.97;;;25.66;50.53
66742;BME280;53654;54.152;19.432;2022-08-03T08:50:55;101806.23;;;25.83;49.79
66742;BME280;53654;54.152;19.432;2022-08-03T08:53:25;101802.27;;;25.90;48.89
66742;BME280;53654;54.152;19.432;2022-08-03T08:55:58;101804.66;;;25.92;48.65
66742;BME280;53654;54.152;19.432;2022-08-03T08:58:33;101802.27;;;26.00;48.65
66742;BME280;53654;54.152;19.432;2022-08-03T09:01:02;101802.02;;;26.17;48.57
66742;BME280;53654;54.152;19.432;2022-08-03T09:03:34;101802.98;;;26.38;48.55
66742;BME280;53654;54.152;19.432;2022-08-03T09:06:03;101811.16;;;26.60;48.34
66742;BME280;53654;54.152;19.432;2022-08-03T09:08:31;101806.38;;;26.78;47.12
66742;BME280;53654;54.152;19.432;2022-08-03T09:11:00;101802.92;;;26.90;46.96
66742;BME280;53654;54.152;19.432;2022-08-03T09:13:28;101803.26;;;27.09;46.76
66742;BME280;53654;54.152;19.432;2022-08-03T09:16:17;101799.73;;;27.22;45.93
66742;BME280;53654;54.152;19.432;2022-08-03T09:18:49;101796.30;;;27.43;44.97
66742;BME280;53654;54.152;19.432;2022-08-03T09:21:22;101795.05;;;27.60;44.34
66742;BME280;53654;54.152;19.432;2022-08-03T09:24:01;101792.16;;;27.74;44.54
66742;BME280;53654;54.152;19.432;2022-08-03T09:26:36;101789.15;;;27.85;43.93
66742;BME280;53654;54.152;19.432;2022-08-03T09:29:09;101785.32;;;27.97;43.84
66742;BME280;53654;54.152;19.432;2022-08-03T09:31:43;101786.39;;;28.11;43.20
66742;BME280;53654;54.152;19.432;2022-08-03T09:34:15;101783.99;;;28.20;42.89
66742;BME280;53654;54.152;19.432;2022-08-03T09:36:48;101778.67;;;28.22;42.98
66742;BME280;53654;54.152;19.432;2022-08-03T09:39:21;101777.27;;;28.30;42.51
66742;BME280;53654;54.152;19.432;2022-08-03T09:44:50;101774.57;;;28.48;42.42
66742;BME280;53654;54.152;19.432;2022-08-03T09:47:31;101775.84;;;28.56;41.79
66742;BME280;53654;54.152;19.432;2022-08-03T09:50:07;101768.98;;;28.65;41.25
66742;BME280;53654;54.152;19.432;2022-08-03T09:52:37;101768.77;;;28.73;40.90
66742;BME280;53654;54.152;19.432;2022-08-03T09:55:19;101767.59;;;28.79;40.74
66742;BME280;53654;54.152;19.432;2022-08-03T09:58:08;101762.59;;;28.90;42.31
66742;BME280;53654;54.152;19.432;2022-08-03T10:03:23;101764.90;;;29.05;39.97
66742;BME280;53654;54.152;19.432;2022-08-03T10:05:51;101764.11;;;29.01;39.76
66742;BME280;53654;54.152;19.432;2022-08-03T10:08:26;101760.02;;;29.01;40.31
66742;BME280;53654;54.152;19.432;2022-08-03T10:10:54;101757.83;;;29.04;41.11
66742;BME280;53654;54.152;19.432;2022-08-03T10:13:24;101760.48;;;29.10;40.25
66742;BME280;53654;54.152;19.432;2022-08-03T10:15:53;101760.51;;;29.06;39.68
66742;BME280;53654;54.152;19.432;2022-08-03T10:18:41;101753.35;;;29.01;40.14
66742;BME280;53654;54.152;19.432;2022-08-03T10:21:11;101751.71;;;28.99;39.72
66742;BME280;53654;54.152;19.432;2022-08-03T10:23:43;101747.98;;;29.01;39.17
66742;BME280;53654;54.152;19.432;2022-08-03T10:26:15;101753.56;;;29.06;39.21
66742;BME280;53654;54.152;19.432;2022-08-03T10:28:48;101752.20;;;29.12;39.40
66742;BME280;53654;54.152;19.432;2022-08-03T10:31:19;101758.67;;;29.17;39.52
66742;BME280;53654;54.152;19.432;2022-08-03T10:33:50;101755.77;;;29.26;38.92
66742;BME280;53654;54.152;19.432;2022-08-03T10:36:22;101749.15;;;29.30;38.97
66742;BME280;53654;54.152;19.432;2022-08-03T10:38:51;101752.33;;;29.28;39.57
66742;BME280;53654;54.152;19.432;2022-08-03T10:41:22;101752.33;;;29.26;39.29
66742;BME280;53654;54.152;19.432;2022-08-03T10:44:02;101750.71;;;29.24;37.84
66742;BME280;53654;54.152;19.432;2022-08-03T10:46:30;101746.68;;;29.19;38.02
66742;BME280;53654;54.152;19.432;2022-08-03T10:49:00;101748.98;;;29.14;37.62
66742;BME280;53654;54.152;19.432;2022-08-03T10:51:30;101749.23;;;29.03;39.60
66742;BME280;53654;54.152;19.432;2022-08-03T10:53:59;101748.77;;;28.82;40.13
66742;BME280;53654;54.152;19.432;2022-08-03T10:59:19;101747.63;;;28.49;40.27
66742;BME280;53654;54.152;19.432;2022-08-03T11:02:06;101745.80;;;28.36;40.36
66742;BME280;53654;54.152;19.432;2022-08-03T11:04:37;101747.66;;;28.30;40.76
66742;BME280;53654;54.152;19.432;2022-08-03T11:09:46;101746.23;;;28.35;39.60
66742;BME280;53654;54.152;19.432;2022-08-03T11:12:29;101744.26;;;28.35;40.36
66742;BME280;53654;54.152;19.432;2022-08-03T11:15:02;101746.20;;;28.35;41.11
66742;BME280;53654;54.152;19.432;2022-08-03T11:17:32;101743.56;;;28.32;40.29
66742;BME280;53654;54.152;19.432;2022-08-03T11:23:12;101736.55;;;28.37;37.68
66742;BME280;53654;54.152;19.432;2022-08-03T11:28:42;101739.80;;;28.37;39.02
66742;BME280;53654;54.152;19.432;2022-08-03T11:34:13;101733.89;;;28.34;39.09
66742;BME280;53654;54.152;19.432;2022-08-03T11:37:19;101736.70;;;28.40;38.76
66742;BME280;53654;54.152;19.432;2022-08-03T11:39:51;101738.13;;;28.41;38.31
66742;BME280;53654;54.152;19.432;2022-08-03T11:44:54;101738.26;;;28.39;37.80
66742;BME280;53654;54.152;19.432;2022-08-03T11:47:27;101743.20;;;28.37;36.33
66742;BME280;53654;54.152;19.432;2022-08-03T11:49:58;101738.92;;;28.29;36.28
66742;BME280;53654;54.152;19.432;2022-08-03T11:52:37;101740.38;;;28.26;36.27
66742;BME280;53654;54.152;19.432;2022-08-03T11:55:10;101735.86;;;28.21;37.01
66742;BME280;53654;54.152;19.432;2022-08-03T11:57:39;101736.86;;;28.08;38.23
66742;BME280;53654;54.152;19.432;2022-08-03T12:00:29;101737.67;;;27.88;38.66
66742;BME280;53654;54.152;19.432;2022-08-03T12:05:47;101734.58;;;27.94;37.32
66742;BME280;53654;54.152;19.432;2022-08-03T12:10:54;101724.64;;;27.76;39.73
66742;BME280;53654;54.152;19.432;2022-08-03T12:13:23;101723.29;;;27.61;40.20
66742;BME280;53654;54.152;19.432;2022-08-03T12:16:21;101718.96;;;27.47;40.48
66742;BME280;53654;54.152;19.432;2022-08-03T12:19:01;101720.85;;;27.46;39.72
66742;BME280;53654;54.152;19.432;2022-08-03T12:21:30;101719.02;;;27.55;39.11
66742;BME280;53654;54.152;19.432;2022-08-03T12:23:59;101712.59;;;27.66;38.48
66742;BME280;53654;54.152;19.432;2022-08-03T12:26:29;101708.33;;;27.68;39.27
66742;BME280;53654;54.152;19.432;2022-08-03T12:29:19;101714.54;;;27.69;39.15
66742;BME280;53654;54.152;19.432;2022-08-03T12:31:47;101714.57;;;27.74;38.56
66742;BME280;53654;54.152;19.432;2022-08-03T12:34:16;101712.31;;;27.84;38.11
66742;BME280;53654;54.152;19.432;2022-08-03T12:36:53;101707.42;;;27.93;37.19
66742;BME280;53654;54.152;19.432;2022-08-03T12:39:24;101702.83;;;28.00;37.24
66742;BME280;53654;54.152;19.432;2022-08-03T12:41:54;101706.61;;;28.00;36.44
66742;BME280;53654;54.152;19.432;2022-08-03T12:44:30;101699.65;;;27.99;37.07
66742;BME280;53654;54.152;19.432;2022-08-03T12:47:00;101701.91;;;27.98;37.70
66742;BME280;53654;54.152;19.432;2022-08-03T12:49:50;101705.08;;;27.99;37.38
66742;BME280;53654;54.152;19.432;2022-08-03T12:52:21;101701.84;;;28.01;37.90
66742;BME280;53654;54.152;19.432;2022-08-03T12:54:54;101700.91;;;28.07;37.30
66742;BME280;53654;54.152;19.432;2022-08-03T12:57:23;101698.94;;;28.10;38.25
66742;BME280;53654;54.152;19.432;2022-08-03T12:59:51;101699.09;;;28.05;38.61
66742;BME280;53654;54.152;19.432;2022-08-03T13:02:24;101700.06;;;27.99;38.84
66742;BME280;53654;54.152;19.432;2022-08-03T13:04:53;101697.45;;;27.91;38.87
66742;BME280;53654;54.152;19.432;2022-08-03T13:07:22;101694.73;;;27.84;39.03
66742;BME280;53654;54.152;19.432;2022-08-03T13:09:52;101692.23;;;27.75;38.82
66742;BME280;53654;54.152;19.432;2022-08-03T13:12:26;101694.42;;;27.70;38.38
66742;BME280;53654;54.152;19.432;2022-08-03T13:14:56;101695.98;;;27.70;39.10
66742;BME280;53654;54.152;19.432;2022-08-03T13:17:26;101698.61;;;27.66;39.10
66742;BME280;53654;54.152;19.432;2022-08-03T13:19:54;101690.59;;;27.60;39.62
66742;BME280;53654;54.152;19.432;2022-08-03T13:22:24;101688.52;;;27.58;37.45
66742;BME280;53654;54.152;19.432;2022-08-03T13:24:55;101690.92;;;27.66;36.65
66742;BME280;53654;54.152;19.432;2022-08-03T13:27:26;101692.14;;;27.66;37.50
66742;BME280;53654;54.152;19.432;2022-08-03T13:30:14;101691.66;;;27.59;37.46
66742;BME280;53654;54.152;19.432;2022-08-03T13:32:56;101688.34;;;27.58;38.30
66742;BME280;53654;54.152;19.432;2022-08-03T13:35:26;101683.73;;;27.52;38.72
66742;BME280;53654;54.152;19.432;2022-08-03T13:37:55;101685.99;;;27.42;38.75
66742;BME280;53654;54.152;19.432;2022-08-03T13:40:23;101685.29;;;27.42;36.97
66742;BME280;53654;54.152;19.432;2022-08-03T13:42:57;101680.32;;;27.49;38.08
66742;BME280;53654;54.152;19.432;2022-08-03T13:45:25;101679.34;;;27.51;36.48
66742;BME280;53654;54.152;19.432;2022-08-03T13:47:54;101674.34;;;27.56;35.68
66742;BME280;53654;54.152;19.432;2022-08-03T13:50:22;101678.79;;;27.68;35.04
66742;BME280;53654;54.152;19.432;2022-08-03T13:52:50;101671.11;;;27.78;36.38
66742;BME280;53654;54.152;19.432;2022-08-03T13:55:18;101672.25;;;27.79;36.07